createdAt,value
2023-02-20T00:00:15.882Z,21.88
2023-02-20T00:02:17.245Z,21.91
2023-02-20T00:04:18.550Z,21.89
2023-02-20T00:06:19.897Z,21.93
2023-02-20T00:08:21.255Z,21.93
2023-02-20T00:10:24.200Z,21.94
2023-02-20T00:12:25.527Z,21.96
2023-02-20T00:14:26.943Z,21.96
2023-02-20T00:16:28.234Z,21.94
2023-02-20T00:18:29.574Z,21.91
2023-02-20T00:20:32.044Z,21.87
2023-02-20T00:22:33.447Z,21.90
2023-02-20T00:24:34.993Z,21.91
2023-02-20T00:26:36.379Z,21.92
2023-02-20T00:28:37.695Z,21.89
2023-02-20T00:30:39.068Z,21.87
2023-02-20T00:32:40.400Z,21.84
2023-02-20T00:34:41.749Z,21.80
2023-02-20T00:36:43.085Z,21.77
2023-02-20T00:38:44.422Z,21.77
2023-02-20T00:40:45.767Z,21.77
2023-02-20T00:42:47.058Z,21.77
2023-02-20T00:44:48.352Z,21.76
2023-02-20T00:46:49.648Z,21.76
2023-02-20T00:48:51.016Z,21.81
2023-02-20T00:50:52.323Z,21.79
2023-02-20T00:52:53.668Z,21.80
2023-02-20T00:54:54.976Z,21.76
2023-02-20T00:56:56.269Z,21.72
2023-02-20T00:58:57.716Z,21.69
2023-02-20T01:00:59.060Z,21.67
2023-02-20T01:03:00.417Z,21.71
2023-02-20T01:05:01.731Z,21.70
2023-02-20T01:07:03.049Z,21.73
2023-02-20T01:09:04.569Z,21.76
2023-02-20T01:11:05.858Z,21.78
2023-02-20T01:13:07.187Z,21.78
2023-02-20T01:15:08.479Z,21.81
2023-02-20T01:17:09.815Z,21.82
2023-02-20T01:19:11.151Z,21.85
2023-02-20T01:21:12.499Z,21.87
2023-02-20T01:23:13.808Z,21.87
2023-02-20T01:25:15.139Z,21.86
2023-02-20T01:27:16.436Z,21.87
2023-02-20T01:29:17.802Z,21.90
2023-02-20T01:31:19.288Z,21.93
2023-02-20T01:33:20.702Z,21.91
2023-02-20T01:35:22.029Z,21.91
2023-02-20T01:37:23.339Z,21.89
2023-02-20T01:39:24.649Z,21.88
2023-02-20T01:41:25.958Z,21.84
2023-02-20T01:43:27.249Z,21.82
2023-02-20T01:45:28.628Z,21.80
2023-02-20T01:47:29.955Z,21.78
2023-02-20T01:49:31.320Z,21.76
2023-02-20T01:51:32.612Z,21.77
2023-02-20T01:53:33.942Z,21.77
2023-02-20T01:55:35.743Z,21.77
2023-02-20T01:57:37.048Z,21.75
2023-02-20T01:59:38.363Z,21.75
2023-02-20T02:01:39.751Z,21.73
2023-02-20T02:03:41.064Z,21.72
2023-02-20T02:05:42.396Z,21.72
2023-02-20T02:07:43.791Z,20.81
2023-02-20T02:09:45.102Z,21.68
2023-02-20T02:11:46.427Z,21.70
2023-02-20T02:13:47.844Z,21.68
2023-02-20T02:15:49.193Z,21.68
2023-02-20T02:17:50.516Z,21.69
2023-02-20T02:19:51.836Z,21.68
2023-02-20T02:21:53.196Z,21.68
2023-02-20T02:23:54.554Z,21.67
2023-02-20T02:25:55.956Z,21.68
2023-02-20T02:27:57.251Z,21.69
2023-02-20T02:29:58.691Z,21.72
2023-02-20T02:32:00.198Z,21.77
2023-02-20T02:34:02.202Z,21.84
2023-02-20T02:36:03.496Z,21.84
2023-02-20T02:38:04.833Z,21.84
2023-02-20T02:40:06.168Z,21.83
2023-02-20T02:42:07.501Z,21.87
2023-02-20T02:44:08.896Z,21.88
2023-02-20T02:46:10.475Z,21.90
2023-02-20T02:48:12.067Z,21.91
2023-02-20T02:50:13.375Z,21.94
2023-02-20T02:52:34.624Z,21.94
2023-02-20T02:54:35.919Z,21.93
2023-02-20T02:56:37.236Z,21.91
2023-02-20T02:58:38.535Z,21.92
2023-02-20T03:00:40.040Z,21.91
2023-02-20T03:02:41.432Z,21.92
2023-02-20T03:04:42.778Z,21.92
2023-02-20T03:06:44.111Z,21.93
2023-02-20T03:08:45.414Z,21.89
2023-02-20T03:10:46.711Z,21.89
2023-02-20T03:12:49.115Z,21.85
2023-02-20T03:15:09.148Z,21.79
2023-02-20T03:17:10.484Z,21.72
2023-02-20T03:19:13.821Z,21.67
2023-02-20T03:21:15.396Z,21.63
2023-02-20T03:23:16.719Z,21.59
2023-02-20T03:25:18.024Z,21.57
2023-02-20T03:27:19.359Z,21.57
2023-02-20T03:29:24.342Z,21.58
2023-02-20T03:31:27.205Z,21.59
2023-02-20T03:33:47.425Z,21.64
2023-02-20T03:36:07.196Z,21.67
2023-02-20T03:38:27.108Z,21.70
2023-02-20T03:40:46.975Z,21.72
2023-02-20T03:43:06.902Z,21.89
2023-02-20T03:45:08.199Z,21.70
2023-02-20T03:47:09.499Z,21.54
2023-02-20T03:49:10.837Z,21.46
2023-02-20T03:51:30.679Z,21.40
2023-02-20T03:53:31.972Z,21.11
2023-02-20T03:55:33.296Z,21.13
2023-02-20T03:57:34.792Z,21.26
2023-02-20T03:59:36.095Z,21.09
2023-02-20T04:01:37.560Z,20.96
2023-02-20T04:03:39.309Z,21.03
2023-02-20T04:05:40.700Z,21.23
2023-02-20T04:07:41.997Z,21.37
2023-02-20T04:09:43.323Z,21.45
2023-02-20T04:11:45.019Z,21.54
2023-02-20T04:13:46.359Z,21.60
2023-02-20T04:15:47.741Z,21.66
2023-02-20T04:17:49.041Z,21.71
2023-02-20T04:19:50.419Z,21.73
2023-02-20T04:21:51.724Z,21.74
2023-02-20T04:23:53.061Z,21.71
2023-02-20T04:25:54.400Z,21.76
2023-02-20T04:27:55.727Z,21.74
2023-02-20T04:29:57.085Z,21.72
2023-02-20T04:31:58.463Z,21.68
2023-02-20T04:33:59.774Z,21.64
2023-02-20T04:36:02.238Z,21.62
2023-02-20T04:38:03.565Z,21.59
2023-02-20T04:40:04.896Z,21.53
2023-02-20T04:42:06.271Z,21.51
2023-02-20T04:44:26.511Z,21.45
2023-02-20T04:46:27.863Z,21.43
2023-02-20T04:48:29.211Z,21.40
2023-02-20T04:50:30.514Z,21.35
2023-02-20T04:52:31.808Z,21.35
2023-02-20T04:54:33.105Z,21.33
2023-02-20T04:56:37.424Z,21.32
2023-02-20T04:58:38.814Z,21.29
2023-02-20T05:00:40.122Z,21.27
2023-02-20T05:02:41.466Z,21.23
2023-02-20T05:04:42.805Z,21.20
2023-02-20T05:06:44.127Z,21.16
2023-02-20T05:08:45.583Z,21.11
2023-02-20T05:10:46.878Z,21.05
2023-02-20T05:12:48.177Z,20.99
2023-02-20T05:14:49.515Z,20.92
2023-02-20T05:16:51.366Z,20.88
2023-02-20T05:18:52.680Z,20.81
2023-02-20T05:21:12.484Z,20.78
2023-02-20T05:23:13.817Z,20.75
2023-02-20T05:25:15.201Z,20.76
2023-02-20T05:27:16.502Z,20.80
2023-02-20T05:29:17.832Z,20.84
2023-02-20T05:31:19.379Z,20.88
2023-02-20T05:33:20.754Z,20.96
2023-02-20T05:35:22.102Z,21.05
2023-02-20T05:37:23.441Z,21.11
2023-02-20T05:39:24.736Z,21.19
2023-02-20T05:41:26.042Z,21.26
2023-02-20T05:43:27.340Z,21.32
2023-02-20T05:45:28.710Z,21.39
2023-02-20T05:47:30.015Z,21.42
2023-02-20T05:49:32.243Z,21.45
2023-02-20T05:51:34.337Z,21.49
2023-02-20T05:53:35.686Z,21.50
2023-02-20T05:55:37.007Z,21.50
2023-02-20T05:57:38.456Z,21.53
2023-02-20T05:59:39.799Z,21.55
2023-02-20T06:01:41.120Z,21.58
2023-02-20T06:03:42.573Z,21.57
2023-02-20T06:05:43.960Z,21.54
2023-02-20T06:07:45.338Z,21.51
2023-02-20T06:09:46.642Z,21.49
2023-02-20T06:11:48.119Z,21.45
2023-02-20T06:13:49.421Z,21.42
2023-02-20T06:15:50.860Z,21.38
2023-02-20T06:17:52.194Z,21.35
2023-02-20T06:19:53.536Z,21.33
2023-02-20T06:21:54.892Z,21.30
2023-02-20T06:23:56.222Z,21.27
2023-02-20T06:25:57.525Z,21.22
2023-02-20T06:27:59.122Z,21.20
2023-02-20T06:30:00.444Z,21.19
2023-02-20T06:32:02.455Z,21.17
2023-02-20T06:34:04.134Z,21.17
2023-02-20T06:36:05.573Z,21.16
2023-02-20T06:38:06.903Z,21.16
2023-02-20T06:40:08.257Z,21.14
2023-02-20T06:42:09.588Z,21.13
2023-02-20T06:44:10.941Z,21.11
2023-02-20T06:46:12.449Z,21.10
2023-02-20T06:48:17.581Z,21.08
2023-02-20T06:50:18.940Z,21.08
2023-02-20T06:52:20.276Z,21.06
2023-02-20T06:54:24.366Z,21.04
2023-02-20T06:56:25.706Z,21.03
2023-02-20T06:58:27.025Z,19.82
2023-02-20T07:00:28.342Z,21.02
2023-02-20T07:02:29.639Z,21.04
2023-02-20T07:04:31.149Z,20.13
2023-02-20T07:06:32.476Z,21.07
2023-02-20T07:08:33.896Z,21.13
2023-02-20T07:10:35.232Z,21.18
2023-02-20T07:12:38.502Z,21.20
2023-02-20T07:14:39.957Z,21.27
2023-02-20T07:16:41.265Z,21.31
2023-02-20T07:18:42.562Z,21.34
2023-02-20T07:20:43.952Z,21.36
2023-02-20T07:22:45.247Z,21.39
2023-02-20T07:24:46.580Z,21.37
2023-02-20T07:26:47.876Z,21.39
2023-02-20T07:28:49.200Z,21.38
2023-02-20T07:30:50.509Z,21.37
2023-02-20T07:32:51.791Z,21.35
2023-02-20T07:35:03.805Z,21.33
2023-02-20T07:37:06.896Z,21.30
2023-02-20T07:39:08.188Z,21.28
2023-02-20T07:41:09.520Z,21.24
2023-02-20T07:43:10.822Z,21.21
2023-02-20T07:45:12.163Z,21.19
2023-02-20T07:47:13.527Z,21.16
2023-02-20T07:49:14.828Z,21.14
2023-02-20T07:51:16.354Z,21.12
2023-02-20T07:53:17.670Z,21.09
2023-02-20T07:55:19.068Z,21.07
2023-02-20T07:57:20.405Z,21.06
2023-02-20T07:59:22.402Z,21.06
2023-02-20T08:01:23.703Z,21.04
2023-02-20T08:03:25.043Z,21.05
2023-02-20T08:05:26.371Z,21.04
2023-02-20T08:07:27.681Z,21.04
2023-02-20T08:09:28.975Z,21.03
2023-02-20T08:11:30.310Z,21.02
2023-02-20T08:13:31.617Z,21.02
2023-02-20T08:15:32.923Z,21.01
2023-02-20T08:17:45.636Z,20.99
2023-02-20T08:19:47.644Z,21.01
2023-02-20T08:21:48.996Z,21.00
2023-02-20T08:23:50.385Z,21.02
2023-02-20T08:25:52.195Z,21.03
2023-02-20T08:27:53.531Z,21.06
2023-02-20T08:29:54.847Z,21.10
2023-02-20T08:31:56.328Z,21.11
2023-02-20T08:33:57.733Z,21.16
2023-02-20T08:35:59.163Z,21.20
2023-02-20T08:38:02.181Z,21.22
2023-02-20T08:40:06.851Z,21.28
2023-02-20T08:42:08.172Z,21.33
2023-02-20T08:44:09.516Z,21.34
2023-02-20T08:46:10.928Z,21.38
2023-02-20T08:48:12.552Z,21.39
2023-02-20T08:50:13.859Z,21.43
2023-02-20T08:52:15.159Z,21.43
2023-02-20T08:54:16.463Z,21.41
2023-02-20T08:56:17.795Z,21.38
2023-02-20T08:58:19.087Z,21.34
2023-02-20T09:00:20.458Z,21.30
2023-02-20T09:02:21.845Z,21.28
2023-02-20T09:04:23.810Z,21.27
2023-02-20T09:06:26.220Z,21.23
2023-02-20T09:08:27.559Z,21.21
2023-02-20T09:10:28.978Z,21.22
2023-02-20T09:12:31.044Z,21.22
2023-02-20T09:14:32.352Z,21.18
2023-02-20T09:16:33.736Z,21.17
2023-02-20T09:18:35.120Z,21.17
2023-02-20T09:20:37.526Z,21.18
2023-02-20T09:22:38.836Z,21.18
2023-02-20T09:24:40.176Z,21.17
2023-02-20T09:26:41.473Z,21.14
2023-02-20T09:28:42.840Z,21.11
2023-02-20T09:30:44.163Z,21.09
2023-02-20T09:32:47.165Z,21.06
2023-02-20T09:34:48.514Z,21.04
2023-02-20T09:36:49.845Z,21.04
2023-02-20T09:38:51.290Z,21.02
2023-02-20T09:40:52.603Z,21.00
2023-02-20T09:42:53.936Z,20.99
2023-02-20T09:44:55.229Z,20.97
2023-02-20T09:46:56.748Z,20.98
2023-02-20T09:48:58.084Z,21.01
2023-02-20T09:50:59.375Z,21.00
2023-02-20T09:53:00.682Z,21.05
2023-02-20T09:55:02.003Z,21.11
2023-02-20T09:57:03.345Z,21.15
2023-02-20T09:59:04.659Z,21.21
2023-02-20T10:01:05.991Z,21.26
2023-02-20T10:03:07.384Z,21.29
2023-02-20T10:05:08.735Z,21.30
2023-02-20T10:07:10.084Z,21.33
2023-02-20T10:09:12.379Z,21.34
2023-02-20T10:11:13.729Z,21.37
2023-02-20T10:13:15.899Z,21.37
2023-02-20T10:15:20.752Z,21.38
2023-02-20T10:17:22.288Z,21.39
2023-02-20T10:19:23.601Z,21.38
2023-02-20T10:21:24.896Z,21.38
2023-02-20T10:23:28.416Z,21.39
2023-02-20T10:25:30.104Z,21.35
2023-02-20T10:27:31.456Z,21.33
2023-02-20T10:29:34.337Z,21.32
2023-02-20T10:31:35.717Z,21.29
2023-02-20T10:33:37.085Z,21.25
2023-02-20T10:35:38.437Z,21.22
2023-02-20T10:37:47.460Z,21.19
2023-02-20T10:39:49.506Z,21.17
2023-02-20T10:41:54.732Z,21.14
2023-02-20T10:43:56.196Z,21.10
2023-02-20T10:45:57.561Z,21.08
2023-02-20T10:47:58.956Z,21.06
2023-02-20T10:50:00.353Z,21.03
2023-02-20T10:52:01.722Z,20.96
2023-02-20T10:54:03.063Z,20.94
2023-02-20T10:56:04.397Z,20.92
2023-02-20T10:58:05.748Z,20.90
2023-02-20T11:00:07.062Z,20.90
2023-02-20T11:02:08.430Z,20.86
2023-02-20T11:04:09.825Z,20.86
2023-02-20T11:06:11.556Z,20.87
2023-02-20T11:08:13.033Z,20.86
2023-02-20T11:10:14.352Z,20.85
2023-02-20T11:12:16.028Z,20.86
2023-02-20T11:14:17.338Z,20.88
2023-02-20T11:16:18.670Z,20.89
2023-02-20T11:18:20.057Z,20.89
2023-02-20T11:20:21.391Z,20.92
2023-02-20T11:22:22.696Z,20.95
2023-02-20T11:24:24.037Z,20.96
2023-02-20T11:26:25.385Z,21.00
2023-02-20T11:28:26.769Z,21.01
2023-02-20T11:30:28.593Z,21.07
2023-02-20T11:32:29.973Z,21.08
2023-02-20T11:34:31.287Z,21.12
2023-02-20T11:36:32.612Z,21.13
2023-02-20T11:38:34.095Z,21.16
2023-02-20T11:40:36.220Z,21.17
2023-02-20T11:42:37.544Z,21.19
2023-02-20T11:44:38.857Z,21.20
2023-02-20T11:46:40.225Z,21.23
2023-02-20T11:48:41.600Z,21.26
2023-02-20T11:50:42.972Z,21.31
2023-02-20T11:52:44.271Z,21.33
2023-02-20T11:54:48.371Z,21.35
2023-02-20T11:56:49.712Z,21.34
2023-02-20T11:58:51.054Z,21.35
2023-02-20T12:00:52.462Z,21.35
2023-02-20T12:02:53.851Z,21.33
2023-02-20T12:04:55.225Z,21.34
2023-02-20T12:06:56.561Z,21.33
2023-02-20T12:08:57.852Z,21.35
2023-02-20T12:11:01.061Z,21.35
2023-02-20T12:13:02.419Z,21.34
2023-02-20T12:15:03.837Z,21.34
2023-02-20T12:17:05.178Z,21.32
2023-02-20T12:19:06.469Z,21.30
2023-02-20T12:21:07.766Z,21.27
2023-02-20T12:23:09.199Z,21.23
2023-02-20T12:25:10.609Z,21.19
2023-02-20T12:27:11.912Z,21.16
2023-02-20T12:29:13.250Z,21.13
2023-02-20T12:31:14.654Z,21.11
2023-02-20T12:33:15.997Z,21.09
2023-02-20T12:35:17.332Z,21.08
2023-02-20T12:37:19.246Z,21.05
2023-02-20T12:39:20.589Z,21.03
2023-02-20T12:41:21.971Z,21.04
2023-02-20T12:43:23.276Z,21.06
2023-02-20T12:45:24.611Z,21.05
2023-02-20T12:47:25.949Z,21.04
2023-02-20T12:49:27.290Z,21.03
2023-02-20T12:51:28.620Z,21.02
2023-02-20T12:53:29.986Z,21.01
2023-02-20T12:55:31.326Z,21.01
2023-02-20T12:57:32.645Z,21.03
2023-02-20T12:59:34.032Z,21.02
2023-02-20T13:01:40.116Z,21.03
2023-02-20T13:03:42.020Z,21.00
2023-02-20T13:05:43.498Z,21.00
2023-02-20T13:07:44.891Z,21.00
2023-02-20T13:09:46.191Z,21.01
2023-02-20T13:11:47.480Z,21.03
2023-02-20T13:13:48.782Z,21.07
2023-02-20T13:15:50.091Z,21.14
2023-02-20T13:17:51.393Z,21.17
2023-02-20T13:19:53.042Z,21.20
2023-02-20T13:21:54.330Z,21.23
2023-02-20T13:23:55.630Z,21.24
2023-02-20T13:25:56.976Z,21.24
2023-02-20T13:27:58.273Z,21.25
2023-02-20T13:29:59.629Z,21.23
2023-02-20T13:32:01.147Z,21.18
2023-02-20T13:34:02.545Z,21.11
2023-02-20T13:36:03.866Z,21.03
2023-02-20T13:38:05.160Z,20.96
2023-02-20T13:40:06.454Z,20.89
2023-02-20T13:42:09.786Z,20.83
2023-02-20T13:44:11.685Z,20.80
2023-02-20T13:46:14.919Z,20.79
2023-02-20T13:48:16.535Z,20.79
2023-02-20T13:50:17.946Z,20.82
2023-02-20T13:52:19.235Z,20.85
2023-02-20T13:54:20.565Z,20.88
2023-02-20T13:56:21.869Z,20.53
2023-02-20T13:58:23.309Z,20.43
2023-02-20T14:00:25.270Z,20.18
2023-02-20T14:02:30.929Z,20.30
2023-02-20T14:04:32.420Z,21.05
2023-02-20T14:06:33.814Z,21.50
2023-02-20T14:08:35.347Z,21.82
2023-02-20T14:10:36.647Z,22.04
2023-02-20T14:12:37.949Z,22.22
2023-02-20T14:14:39.476Z,22.28
2023-02-20T14:16:40.824Z,23.00
2023-02-20T14:18:42.145Z,22.81
2023-02-20T14:20:44.804Z,22.38
2023-02-20T14:22:46.137Z,21.95
2023-02-20T14:24:47.432Z,21.67
2023-02-20T14:26:48.760Z,21.53
2023-02-20T14:28:50.112Z,21.50
2023-02-20T14:30:51.426Z,21.48
2023-02-20T14:32:52.767Z,21.81
2023-02-20T14:34:54.146Z,22.08
2023-02-20T14:36:55.495Z,22.45
2023-02-20T14:38:56.791Z,22.70
2023-02-20T14:40:59.653Z,22.90
2023-02-20T14:43:02.430Z,23.05
2023-02-20T14:45:03.807Z,22.69
2023-02-20T14:47:05.171Z,22.47
2023-02-20T14:49:06.482Z,22.67
2023-02-20T14:51:09.797Z,22.78
2023-02-20T14:53:11.243Z,22.23
2023-02-20T14:55:12.558Z,21.92
2023-02-20T14:57:14.104Z,21.74
2023-02-20T14:59:15.396Z,21.67
2023-02-20T15:01:16.754Z,21.63
2023-02-20T15:03:29.862Z,21.61
2023-02-20T15:05:32.293Z,21.59
2023-02-20T15:07:33.597Z,21.57
2023-02-20T15:09:34.899Z,21.53
2023-02-20T15:11:36.319Z,21.53
2023-02-20T15:13:37.676Z,21.53
2023-02-20T15:15:39.098Z,21.51
2023-02-20T15:17:40.404Z,21.48
2023-02-20T15:19:41.843Z,21.45
2023-02-20T15:21:43.400Z,21.45
2023-02-20T15:23:44.814Z,21.44
2023-02-20T15:25:46.199Z,21.43
2023-02-20T15:27:47.516Z,21.46
2023-02-20T15:29:48.913Z,21.33
2023-02-20T15:31:50.400Z,21.27
2023-02-20T15:33:52.107Z,21.24
2023-02-20T15:35:53.449Z,21.23
2023-02-20T15:37:54.748Z,21.22
2023-02-20T15:39:56.069Z,21.22
2023-02-20T15:41:58.375Z,21.21
2023-02-20T15:44:06.800Z,21.23
2023-02-20T15:46:08.111Z,21.24
2023-02-20T15:48:10.577Z,21.28
2023-02-20T15:50:11.896Z,21.32
2023-02-20T15:52:13.200Z,21.34
2023-02-20T15:54:14.642Z,21.35
2023-02-20T15:56:16.313Z,21.37
2023-02-20T15:58:22.635Z,21.39
2023-02-20T16:00:26.102Z,21.43
2023-02-20T16:02:27.560Z,21.47
2023-02-20T16:04:28.932Z,21.48
2023-02-20T16:06:30.314Z,21.49
2023-02-20T16:08:31.606Z,21.70
2023-02-20T16:10:32.947Z,22.28
2023-02-20T16:12:34.376Z,22.19
2023-02-20T16:14:35.687Z,22.80
2023-02-20T16:16:37.060Z,22.80
2023-02-20T16:18:38.639Z,23.06
2023-02-20T16:20:39.978Z,23.16
2023-02-20T16:22:41.309Z,21.90
2023-02-20T16:24:44.567Z,22.60
2023-02-20T16:26:45.862Z,22.55
2023-02-20T16:28:47.153Z,22.52
2023-02-20T16:30:48.553Z,22.49
2023-02-20T16:32:50.385Z,22.47
2023-02-20T16:34:51.728Z,22.44
2023-02-20T16:36:53.513Z,22.43
2023-02-20T16:38:55.147Z,22.43
2023-02-20T16:40:56.615Z,22.43
2023-02-20T16:42:57.927Z,22.42
2023-02-20T16:44:59.532Z,22.41
2023-02-20T16:47:00.940Z,22.39
2023-02-20T16:49:02.302Z,22.39
2023-02-20T16:51:06.315Z,22.37
2023-02-20T16:53:07.720Z,22.38
2023-02-20T16:55:09.060Z,22.37
2023-02-20T16:57:10.409Z,22.39
2023-02-20T16:59:14.679Z,22.39
2023-02-20T17:01:16.114Z,22.38
2023-02-20T17:03:17.480Z,22.36
2023-02-20T17:05:18.882Z,22.35
2023-02-20T17:07:20.386Z,22.51
2023-02-20T17:09:23.190Z,22.43
2023-02-20T17:11:25.994Z,22.07
2023-02-20T17:13:27.322Z,21.44
2023-02-20T17:15:28.645Z,21.71
2023-02-20T17:17:30.065Z,22.02
2023-02-20T17:19:34.923Z,21.62
2023-02-20T17:21:36.220Z,22.64
2023-02-20T17:23:38.593Z,22.45
2023-02-20T17:25:42.975Z,22.44
2023-02-20T17:27:44.252Z,22.94
2023-02-20T17:29:45.606Z,22.98
2023-02-20T17:31:47.000Z,22.81
2023-02-20T17:33:48.505Z,22.58
2023-02-20T17:35:49.991Z,22.58
2023-02-20T17:37:51.319Z,22.81
2023-02-20T17:39:52.647Z,22.54
2023-02-20T17:41:57.392Z,22.16
2023-02-20T17:44:01.640Z,22.25
2023-02-20T17:46:03.268Z,22.89
2023-02-20T17:48:05.502Z,22.57
2023-02-20T17:50:06.862Z,22.81
2023-02-20T17:52:08.166Z,23.19
2023-02-20T17:54:12.561Z,23.42
2023-02-20T17:56:14.386Z,22.90
2023-02-20T17:58:15.843Z,22.79
2023-02-20T18:00:17.167Z,22.75
2023-02-20T18:02:18.843Z,22.91
2023-02-20T18:04:21.273Z,22.68
2023-02-20T18:06:22.872Z,22.60
2023-02-20T18:08:24.231Z,23.05
2023-02-20T18:10:25.531Z,22.93
2023-02-20T18:12:26.881Z,22.78
2023-02-20T18:14:28.464Z,22.34
2023-02-20T18:16:29.963Z,22.39
2023-02-20T18:18:31.326Z,22.56
2023-02-20T18:20:32.621Z,22.64
2023-02-20T18:22:33.980Z,22.65
2023-02-20T18:24:35.342Z,22.62
2023-02-20T18:26:36.708Z,22.62
2023-02-20T18:28:42.028Z,23.06
2023-02-20T18:30:43.524Z,23.24
2023-02-20T18:32:44.919Z,22.88
2023-02-20T18:34:46.295Z,22.75
2023-02-20T18:36:47.621Z,22.69
2023-02-20T18:38:48.921Z,21.53
2023-02-20T18:40:50.258Z,21.85
2023-02-20T18:42:51.846Z,21.84
2023-02-20T18:44:57.582Z,22.33
2023-02-20T18:46:58.875Z,22.49
2023-02-20T18:49:00.383Z,22.65
2023-02-20T18:51:01.718Z,23.35
2023-02-20T18:53:03.012Z,23.15
2023-02-20T18:55:04.864Z,22.90
2023-02-20T18:57:06.163Z,22.80
2023-02-20T18:59:07.515Z,22.63
2023-02-20T19:01:08.922Z,22.62
2023-02-20T19:03:12.955Z,22.72
2023-02-20T19:05:14.360Z,22.77
2023-02-20T19:07:18.365Z,22.98
2023-02-20T19:09:25.640Z,22.81
2023-02-20T19:11:26.950Z,22.71
2023-02-20T19:13:28.284Z,22.63
2023-02-20T19:15:32.363Z,22.65
2023-02-20T19:17:34.121Z,22.58
2023-02-20T19:19:35.503Z,22.57
2023-02-20T19:21:36.797Z,22.62
2023-02-20T19:23:38.147Z,22.32
2023-02-20T19:25:39.545Z,22.41
2023-02-20T19:27:40.891Z,22.52
2023-02-20T19:29:42.582Z,22.58
2023-02-20T19:31:44.069Z,22.61
2023-02-20T19:33:46.623Z,22.60
2023-02-20T19:35:48.591Z,22.64
2023-02-20T19:37:49.953Z,22.81
2023-02-20T19:39:51.288Z,23.23
2023-02-20T19:41:52.671Z,22.58
2023-02-20T19:43:55.840Z,22.25
2023-02-20T19:45:57.339Z,22.03
2023-02-20T19:47:58.634Z,21.91
2023-02-20T19:49:59.998Z,21.86
2023-02-20T19:52:01.300Z,21.79
2023-02-20T19:54:02.592Z,21.76
2023-02-20T19:56:07.999Z,21.73
2023-02-20T19:58:09.297Z,21.72
2023-02-20T20:00:12.844Z,21.72
2023-02-20T20:02:17.207Z,21.68
2023-02-20T20:04:18.537Z,21.66
2023-02-20T20:06:19.954Z,21.53
2023-02-20T20:08:21.735Z,21.79
2023-02-20T20:10:23.173Z,22.09
2023-02-20T20:12:43.067Z,22.30
2023-02-20T20:14:44.375Z,22.41
2023-02-20T20:16:45.696Z,22.42
2023-02-20T20:18:47.028Z,22.44
2023-02-20T20:20:48.340Z,22.18
2023-02-20T20:22:49.661Z,20.83
2023-02-20T20:24:50.980Z,20.29
2023-02-20T20:26:59.255Z,20.53
2023-02-20T20:29:00.697Z,21.57
2023-02-20T20:31:02.023Z,22.01
2023-02-20T20:33:09.905Z,22.18
2023-02-20T20:35:14.008Z,22.36
2023-02-20T20:37:15.299Z,22.47
2023-02-20T20:39:17.633Z,22.66
2023-02-20T20:41:19.032Z,22.73
2023-02-20T20:43:20.812Z,22.90
2023-02-20T20:45:25.040Z,22.93
2023-02-20T20:47:26.557Z,22.94
2023-02-20T20:49:27.931Z,22.95
2023-02-20T20:51:29.223Z,23.00
2023-02-20T20:53:30.529Z,23.17
2023-02-20T20:55:34.075Z,23.19
2023-02-20T20:57:40.535Z,23.17
2023-02-20T20:59:41.935Z,23.17
2023-02-20T21:01:43.619Z,23.11
2023-02-20T21:03:44.964Z,23.14
2023-02-20T21:05:46.289Z,23.17
2023-02-20T21:07:47.611Z,23.19
2023-02-20T21:09:48.911Z,23.15
2023-02-20T21:11:50.455Z,23.12
2023-02-20T21:13:51.912Z,23.12
2023-02-20T21:15:53.254Z,22.80
2023-02-20T21:17:57.602Z,22.50
2023-02-20T21:20:00.086Z,22.72
2023-02-20T21:22:01.674Z,23.05
2023-02-20T21:24:03.112Z,23.13
2023-02-20T21:26:04.420Z,22.98
2023-02-20T21:28:05.721Z,22.34
2023-02-20T21:30:07.103Z,20.79
2023-02-20T21:32:08.571Z,20.14
2023-02-20T21:34:09.903Z,19.79
2023-02-20T21:36:11.274Z,19.52
2023-02-20T21:38:12.606Z,19.38
2023-02-20T21:40:13.895Z,19.95
2023-02-20T21:42:33.941Z,20.74
2023-02-20T21:44:36.522Z,21.12
2023-02-20T21:46:37.835Z,21.24
2023-02-20T21:48:39.143Z,21.29
2023-02-20T21:50:40.482Z,21.32
2023-02-20T21:52:41.787Z,21.33
2023-02-20T21:54:43.097Z,21.38
2023-02-20T21:56:44.421Z,21.44
2023-02-20T21:59:06.299Z,21.49
2023-02-20T22:01:07.704Z,21.55
2023-02-20T22:03:09.000Z,21.60
2023-02-20T22:05:10.327Z,21.65
2023-02-20T22:07:30.204Z,21.70
2023-02-20T22:09:50.591Z,21.72
2023-02-20T22:12:10.544Z,21.77
2023-02-20T22:14:30.568Z,21.78
2023-02-20T22:16:50.470Z,21.80
2023-02-20T22:19:10.279Z,21.79
2023-02-20T22:21:30.132Z,21.80
2023-02-20T22:23:49.955Z,21.78
2023-02-20T22:26:10.005Z,21.76
2023-02-20T22:28:29.880Z,21.74
2023-02-20T22:30:51.636Z,21.69
2023-02-20T22:33:12.731Z,21.66
2023-02-20T22:35:32.603Z,21.65
2023-02-20T22:37:52.455Z,21.62
2023-02-20T22:40:12.472Z,21.59
2023-02-20T22:42:35.323Z,21.55
2023-02-20T22:44:55.739Z,21.51
2023-02-20T22:47:15.631Z,21.45
2023-02-20T22:49:35.539Z,21.41
2023-02-20T22:51:55.545Z,21.38
2023-02-20T22:54:15.732Z,21.35
2023-02-20T22:56:35.954Z,21.34
2023-02-20T22:58:56.200Z,21.33
2023-02-20T23:01:16.386Z,21.34
2023-02-20T23:03:36.451Z,21.44
2023-02-20T23:06:00.507Z,21.44
2023-02-20T23:08:25.034Z,21.45
2023-02-20T23:10:45.032Z,21.45
2023-02-20T23:13:04.946Z,21.44
2023-02-20T23:15:24.938Z,21.41
2023-02-20T23:17:44.932Z,21.39
2023-02-20T23:20:04.991Z,21.39
2023-02-20T23:22:25.036Z,21.39
2023-02-20T23:24:45.004Z,21.39
2023-02-20T23:27:04.812Z,21.39
2023-02-20T23:29:24.423Z,21.41
2023-02-20T23:31:44.587Z,21.41
2023-02-20T23:34:04.888Z,21.40
2023-02-20T23:36:24.840Z,21.44
2023-02-20T23:38:44.645Z,21.47
2023-02-20T23:41:04.620Z,21.48
2023-02-20T23:43:24.567Z,21.51
2023-02-20T23:45:44.373Z,21.52
2023-02-20T23:48:04.845Z,21.47
2023-02-20T23:50:25.913Z,21.50
2023-02-20T23:52:45.746Z,21.36
2023-02-20T23:55:05.554Z,21.40
2023-02-20T23:57:25.397Z,21.45
2023-02-20T23:59:45.271Z,21.49
